sensor_id;sensor_type;location;lat;lon;timestamp;temperature;humidity
19449;DHT22;9863;49.404;8.246;2023-01-10T00:00:48;6.40;99.90
19449;DHT22;9863;49.404;8.246;2023-01-10T00:03:15;6.30;99.90
19449;DHT22;9863;49.404;8.246;2023-01-10T00:05:42;6.30;99.90
19449;DHT22;9863;49.404;8.246;2023-01-10T00:08:14;6.30;99.90
19449;DHT22;9863;49.404;8.246;2023-01-10T00:10:41;6.30;99.90
19449;DHT22;9863;49.404;8.246;2023-01-10T00:13:16;6.20;99.90
19449;DHT22;9863;49.404;8.246;2023-01-10T00:15:51;6.20;99.90
19449;DHT22;9863;49.404;8.246;2023-01-10T00:18:20;6.20;99.90
19449;DHT22;9863;49.404;8.246;2023-01-10T00:20:48;6.20;99.90
19449;DHT22;9863;49.404;8.246;2023-01-10T00:23:16;6.10;99.90
19449;DHT22;9863;49.404;8.246;2023-01-10T00:25:44;6.10;99.90
19449;DHT22;9863;49.404;8.246;2023-01-10T00:28:11;6.00;99.90
19449;DHT22;9863;49.404;8.246;2023-01-10T00:30:52;6.10;99.90
19449;DHT22;9863;49.404;8.246;2023-01-10T00:33:21;6.10;99.90
19449;DHT22;9863;49.404;8.246;2023-01-10T00:35:48;6.00;99.90
19449;DHT22;9863;49.404;8.246;2023-01-10T00:38:15;6.00;99.90
19449;DHT22;9863;49.404;8.246;2023-01-10T00:40:43;6.00;99.90
19449;DHT22;9863;49.404;8.246;2023-01-10T00:43:11;6.70;99.90
19449;DHT22;9863;49.404;8.246;2023-01-10T00:45:57;5.90;99.90
19449;DHT22;9863;49.404;8.246;2023-01-10T00:48:24;5.90;99.90
19449;DHT22;9863;49.404;8.246;2023-01-10T00:50:51;5.90;99.90
19449;DHT22;9863;49.404;8.246;2023-01-10T00:53:18;5.90;99.90
19449;DHT22;9863;49.404;8.246;2023-01-10T00:55:46;5.80;99.90
19449;DHT22;9863;49.404;8.246;2023-01-10T00:58:14;5.80;99.90
19449;DHT22;9863;49.404;8.246;2023-01-10T01:00:42;5.80;99.90
19449;DHT22;9863;49.404;8.246;2023-01-10T01:03:18;5.70;99.90
19449;DHT22;9863;49.404;8.246;2023-01-10T01:05:46;5.70;99.90
19449;DHT22;9863;49.404;8.246;2023-01-10T01:08:16;6.40;99.90
19449;DHT22;9863;49.404;8.246;2023-01-10T01:10:45;5.60;99.90
19449;DHT22;9863;49.404;8.246;2023-01-10T01:13:16;5.60;99.90
19449;DHT22;9863;49.404;8.246;2023-01-10T01:15:45;5.60;99.90
19449;DHT22;9863;49.404;8.246;2023-01-10T01:18:16;5.50;99.90
19449;DHT22;9863;49.404;8.246;2023-01-10T01:20:45;5.40;99.90
19449;DHT22;9863;49.404;8.246;2023-01-10T01:23:14;5.40;99.90
19449;DHT22;9863;49.404;8.246;2023-01-10T01:25:41;5.30;99.90
19449;DHT22;9863;49.404;8.246;2023-01-10T01:28:11;5.40;99.90
19449;DHT22;9863;49.404;8.246;2023-01-10T01:30:38;5.50;99.90
19449;DHT22;9863;49.404;8.246;2023-01-10T01:33:06;5.60;99.90
19449;DHT22;9863;49.404;8.246;2023-01-10T01:35:36;5.70;99.90
19449;DHT22;9863;49.404;8.246;2023-01-10T01:38:04;5.70;99.90
19449;DHT22;9863;49.404;8.246;2023-01-10T01:40:31;5.80;99.90
19449;DHT22;9863;49.404;8.246;2023-01-10T01:42:58;5.80;99.90
19449;DHT22;9863;49.404;8.246;2023-01-10T01:45:33;5.10;99.90
19449;DHT22;9863;49.404;8.246;2023-01-10T01:48:48;5.80;99.90
19449;DHT22;9863;49.404;8.246;2023-01-10T01:50:57;5.80;99.90
19449;DHT22;9863;49.404;8.246;2023-01-10T01:53:46;5.90;99.90
19449;DHT22;9863;49.404;8.246;2023-01-10T01:56:19;5.90;99.90
19449;DHT22;9863;49.404;8.246;2023-01-10T01:58:58;5.90;99.90
19449;DHT22;9863;49.404;8.246;2023-01-10T02:01:51;5.90;99.90
19449;DHT22;9863;49.404;8.246;2023-01-10T02:04:22;5.90;99.90
19449;DHT22;9863;49.404;8.246;2023-01-10T02:06:54;5.80;99.90
19449;DHT22;9863;49.404;8.246;2023-01-10T02:12:42;5.80;99.90
19449;DHT22;9863;49.404;8.246;2023-01-10T02:15:12;5.80;99.90
19449;DHT22;9863;49.404;8.246;2023-01-10T02:17:41;6.00;99.90
19449;DHT22;9863;49.404;8.246;2023-01-10T02:20:10;5.80;99.90
19449;DHT22;9863;49.404;8.246;2023-01-10T02:38:35;5.60;99.90
19449;DHT22;9863;49.404;8.246;2023-01-10T02:44:09;5.60;99.90
19449;DHT22;9863;49.404;8.246;2023-01-10T02:46:44;5.50;99.90
19449;DHT22;9863;49.404;8.246;2023-01-10T02:49:12;5.40;99.90
19449;DHT22;9863;49.404;8.246;2023-01-10T02:51:39;5.30;99.90
19449;DHT22;9863;49.404;8.246;2023-01-10T02:54:17;5.30;99.90
19449;DHT22;9863;49.404;8.246;2023-01-10T03:02:35;4.90;99.90
19449;DHT22;9863;49.404;8.246;2023-01-10T03:10:53;4.80;99.90
19449;DHT22;9863;49.404;8.246;2023-01-10T03:13:33;4.70;99.90
19449;DHT22;9863;49.404;8.246;2023-01-10T03:16:04;4.80;99.90
19449;DHT22;9863;49.404;8.246;2023-01-10T03:19:03;4.60;99.90
19449;DHT22;9863;49.404;8.246;2023-01-10T03:21:37;4.70;99.90
19449;DHT22;9863;49.404;8.246;2023-01-10T03:24:11;4.90;99.90
19449;DHT22;9863;49.404;8.246;2023-01-10T03:26:50;4.70;99.90
19449;DHT22;9863;49.404;8.246;2023-01-10T03:29:40;5.00;99.90
19449;DHT22;9863;49.404;8.246;2023-01-10T03:32:13;4.70;99.90
19449;DHT22;9863;49.404;8.246;2023-01-10T03:34:42;4.70;99.90
19449;DHT22;9863;49.404;8.246;2023-01-10T03:37:15;4.70;99.90
19449;DHT22;9863;49.404;8.246;2023-01-10T03:45:59;4.80;99.90
19449;DHT22;9863;49.404;8.246;2023-01-10T03:48:35;4.90;99.90
19449;DHT22;9863;49.404;8.246;2023-01-10T03:51:05;4.80;99.90
19449;DHT22;9863;49.404;8.246;2023-01-10T03:53:33;4.70;99.90
19449;DHT22;9863;49.404;8.246;2023-01-10T03:56:03;4.90;99.90
19449;DHT22;9863;49.404;8.246;2023-01-10T03:58:30;4.50;99.90
19449;DHT22;9863;49.404;8.246;2023-01-10T04:00:57;5.10;99.90
19449;DHT22;9863;49.404;8.246;2023-01-10T04:03:25;5.00;99.90
19449;DHT22;9863;49.404;8.246;2023-01-10T04:05:52;5.00;99.90
19449;DHT22;9863;49.404;8.246;2023-01-10T04:08:19;4.90;99.90
19449;DHT22;9863;49.404;8.246;2023-01-10T04:10:48;4.80;99.90
19449;DHT22;9863;49.404;8.246;2023-01-10T04:13:15;4.70;99.90
19449;DHT22;9863;49.404;8.246;2023-01-10T04:15:42;4.70;99.90
19449;DHT22;9863;49.404;8.246;2023-01-10T04:18:09;4.70;99.90
19449;DHT22;9863;49.404;8.246;2023-01-10T04:20:38;4.70;99.90
19449;DHT22;9863;49.404;8.246;2023-01-10T04:23:05;4.70;99.90
19449;DHT22;9863;49.404;8.246;2023-01-10T04:25:32;4.80;99.90
19449;DHT22;9863;49.404;8.246;2023-01-10T04:27:59;4.90;99.90
19449;DHT22;9863;49.404;8.246;2023-01-10T04:30:26;5.00;99.90
19449;DHT22;9863;49.404;8.246;2023-01-10T04:36:18;5.10;99.90
19449;DHT22;9863;49.404;8.246;2023-01-10T04:38:45;5.10;99.90
19449;DHT22;9863;49.404;8.246;2023-01-10T04:41:12;5.00;99.90
19449;DHT22;9863;49.404;8.246;2023-01-10T04:43:39;5.00;99.90
19449;DHT22;9863;49.404;8.246;2023-01-10T04:46:06;5.10;99.90
19449;DHT22;9863;49.404;8.246;2023-01-10T04:48:33;5.10;99.90
19449;DHT22;9863;49.404;8.246;2023-01-10T04:51:02;5.20;99.90
19449;DHT22;9863;49.404;8.246;2023-01-10T04:53:30;5.10;99.90
19449;DHT22;9863;49.404;8.246;2023-01-10T04:56:05;5.20;99.90
19449;DHT22;9863;49.404;8.246;2023-01-10T04:58:34;5.20;99.90
19449;DHT22;9863;49.404;8.246;2023-01-10T05:01:20;5.20;99.90
19449;DHT22;9863;49.404;8.246;2023-01-10T05:03:53;5.20;99.90
19449;DHT22;9863;49.404;8.246;2023-01-10T05:06:25;5.20;99.90
19449;DHT22;9863;49.404;8.246;2023-01-10T05:08:59;5.30;99.90
19449;DHT22;9863;49.404;8.246;2023-01-10T05:11:26;5.40;99.90
19449;DHT22;9863;49.404;8.246;2023-01-10T05:13:54;5.40;99.90
19449;DHT22;9863;49.404;8.246;2023-01-10T05:16:21;5.30;99.90
19449;DHT22;9863;49.404;8.246;2023-01-10T05:18:48;5.30;99.90
19449;DHT22;9863;49.404;8.246;2023-01-10T05:21:16;5.30;99.90
19449;DHT22;9863;49.404;8.246;2023-01-10T05:23:43;5.40;99.90
19449;DHT22;9863;49.404;8.246;2023-01-10T05:26:21;5.40;99.90
19449;DHT22;9863;49.404;8.246;2023-01-10T05:28:49;5.40;99.90
19449;DHT22;9863;49.404;8.246;2023-01-10T05:31:18;5.40;99.90
19449;DHT22;9863;49.404;8.246;2023-01-10T05:33:47;5.30;99.90
19449;DHT22;9863;49.404;8.246;2023-01-10T05:36:16;5.30;99.90
19449;DHT22;9863;49.404;8.246;2023-01-10T05:38:44;5.30;99.90
19449;DHT22;9863;49.404;8.246;2023-01-10T05:41:12;5.30;99.90
19449;DHT22;9863;49.404;8.246;2023-01-10T05:43:39;5.40;99.90
19449;DHT22;9863;49.404;8.246;2023-01-10T05:46:07;5.50;99.90
19449;DHT22;9863;49.404;8.246;2023-01-10T05:48:35;5.40;99.90
19449;DHT22;9863;49.404;8.246;2023-01-10T05:51:02;5.40;99.90
19449;DHT22;9863;49.404;8.246;2023-01-10T05:53:29;5.40;99.90
19449;DHT22;9863;49.404;8.246;2023-01-10T05:55:58;5.40;99.90
19449;DHT22;9863;49.404;8.246;2023-01-10T05:58:27;5.40;99.90
19449;DHT22;9863;49.404;8.246;2023-01-10T06:00:56;5.40;99.90
19449;DHT22;9863;49.404;8.246;2023-01-10T06:03:23;5.20;99.90
19449;DHT22;9863;49.404;8.246;2023-01-10T06:05:55;5.20;99.90
19449;DHT22;9863;49.404;8.246;2023-01-10T06:08:23;5.20;99.90
19449;DHT22;9863;49.404;8.246;2023-01-10T06:10:50;5.20;99.90
19449;DHT22;9863;49.404;8.246;2023-01-10T06:13:17;5.20;99.90
19449;DHT22;9863;49.404;8.246;2023-01-10T06:15:44;5.20;99.90
19449;DHT22;9863;49.404;8.246;2023-01-10T06:18:11;5.20;99.90
19449;DHT22;9863;49.404;8.246;2023-01-10T06:20:39;5.30;99.90
19449;DHT22;9863;49.404;8.246;2023-01-10T06:23:07;5.30;99.90
19449;DHT22;9863;49.404;8.246;2023-01-10T06:25:36;5.50;99.90
19449;DHT22;9863;49.404;8.246;2023-01-10T06:28:07;5.60;99.90
19449;DHT22;9863;49.404;8.246;2023-01-10T06:30:35;5.40;99.90
19449;DHT22;9863;49.404;8.246;2023-01-10T06:33:04;5.40;99.90
19449;DHT22;9863;49.404;8.246;2023-01-10T06:35:33;5.30;99.90
19449;DHT22;9863;49.404;8.246;2023-01-10T06:38:00;5.30;99.90
19449;DHT22;9863;49.404;8.246;2023-01-10T06:40:28;5.40;99.90
19449;DHT22;9863;49.404;8.246;2023-01-10T06:42:55;5.30;99.90
19449;DHT22;9863;49.404;8.246;2023-01-10T06:45:22;5.30;99.90
19449;DHT22;9863;49.404;8.246;2023-01-10T06:47:49;5.30;99.90
19449;DHT22;9863;49.404;8.246;2023-01-10T06:50:16;5.30;99.90
19449;DHT22;9863;49.404;8.246;2023-01-10T06:52:43;5.20;99.90
19449;DHT22;9863;49.404;8.246;2023-01-10T06:55:11;5.10;99.90
19449;DHT22;9863;49.404;8.246;2023-01-10T06:57:38;5.10;99.90
19449;DHT22;9863;49.404;8.246;2023-01-10T07:00:07;5.00;99.90
19449;DHT22;9863;49.404;8.246;2023-01-10T07:02:35;5.10;99.90
19449;DHT22;9863;49.404;8.246;2023-01-10T07:05:02;4.90;99.90
19449;DHT22;9863;49.404;8.246;2023-01-10T07:07:29;4.90;99.90
19449;DHT22;9863;49.404;8.246;2023-01-10T07:09:56;5.00;99.90
19449;DHT22;9863;49.404;8.246;2023-01-10T07:12:25;4.90;99.90
19449;DHT22;9863;49.404;8.246;2023-01-10T07:14:52;5.00;99.90
19449;DHT22;9863;49.404;8.246;2023-01-10T07:17:19;5.20;99.90
19449;DHT22;9863;49.404;8.246;2023-01-10T07:19:46;5.20;99.90
19449;DHT22;9863;49.404;8.246;2023-01-10T07:22:14;5.20;99.90
19449;DHT22;9863;49.404;8.246;2023-01-10T07:24:41;5.20;99.90
19449;DHT22;9863;49.404;8.246;2023-01-10T07:27:08;5.30;99.90
19449;DHT22;9863;49.404;8.246;2023-01-10T07:29:35;5.20;99.90
19449;DHT22;9863;49.404;8.246;2023-01-10T07:32:02;5.40;99.90
19449;DHT22;9863;49.404;8.246;2023-01-10T07:34:29;5.20;99.90
19449;DHT22;9863;49.404;8.246;2023-01-10T07:36:56;5.20;99.90
19449;DHT22;9863;49.404;8.246;2023-01-10T07:39:23;5.20;99.90
19449;DHT22;9863;49.404;8.246;2023-01-10T07:41:50;5.30;99.90
19449;DHT22;9863;49.404;8.246;2023-01-10T07:44:18;5.30;99.90
19449;DHT22;9863;49.404;8.246;2023-01-10T07:46:45;5.30;99.90
19449;DHT22;9863;49.404;8.246;2023-01-10T07:49:12;5.30;99.90
19449;DHT22;9863;49.404;8.246;2023-01-10T07:51:39;5.40;99.90
19449;DHT22;9863;49.404;8.246;2023-01-10T07:54:06;5.40;99.90
19449;DHT22;9863;49.404;8.246;2023-01-10T07:56:33;5.40;99.90
19449;DHT22;9863;49.404;8.246;2023-01-10T07:59:00;5.40;99.90
19449;DHT22;9863;49.404;8.246;2023-01-10T08:01:27;5.40;99.90
19449;DHT22;9863;49.404;8.246;2023-01-10T08:03:56;5.40;99.90
19449;DHT22;9863;49.404;8.246;2023-01-10T08:06:24;5.40;99.90
19449;DHT22;9863;49.404;8.246;2023-01-10T08:08:51;5.50;99.90
19449;DHT22;9863;49.404;8.246;2023-01-10T08:11:18;5.50;99.90
19449;DHT22;9863;49.404;8.246;2023-01-10T08:13:45;5.60;99.90
19449;DHT22;9863;49.404;8.246;2023-01-10T08:16:13;5.50;99.90
19449;DHT22;9863;49.404;8.246;2023-01-10T08:18:41;5.50;99.90
19449;DHT22;9863;49.404;8.246;2023-01-10T08:21:09;5.40;99.90
19449;DHT22;9863;49.404;8.246;2023-01-10T08:23:36;5.30;99.90
19449;DHT22;9863;49.404;8.246;2023-01-10T08:26:04;5.20;99.90
19449;DHT22;9863;49.404;8.246;2023-01-10T08:28:32;5.20;99.90
19449;DHT22;9863;49.404;8.246;2023-01-10T08:31:04;5.10;99.90
19449;DHT22;9863;49.404;8.246;2023-01-10T08:33:32;5.40;99.90
19449;DHT22;9863;49.404;8.246;2023-01-10T08:36:00;5.50;99.90
19449;DHT22;9863;49.404;8.246;2023-01-10T08:38:27;5.30;99.90
19449;DHT22;9863;49.404;8.246;2023-01-10T08:40:57;5.30;99.90
19449;DHT22;9863;49.404;8.246;2023-01-10T08:43:24;5.30;99.90
19449;DHT22;9863;49.404;8.246;2023-01-10T08:45:51;5.20;99.90
19449;DHT22;9863;49.404;8.246;2023-01-10T08:48:18;5.30;99.90
19449;DHT22;9863;49.404;8.246;2023-01-10T08:50:45;5.20;99.90
19449;DHT22;9863;49.404;8.246;2023-01-10T08:53:13;5.30;99.90
19449;DHT22;9863;49.404;8.246;2023-01-10T08:55:40;5.30;99.90
19449;DHT22;9863;49.404;8.246;2023-01-10T08:58:08;5.30;99.90
19449;DHT22;9863;49.404;8.246;2023-01-10T09:00:35;5.40;99.90
19449;DHT22;9863;49.404;8.246;2023-01-10T09:03:05;5.40;99.90
19449;DHT22;9863;49.404;8.246;2023-01-10T09:05:33;5.50;99.90
19449;DHT22;9863;49.404;8.246;2023-01-10T09:08:02;5.50;99.90
19449;DHT22;9863;49.404;8.246;2023-01-10T09:10:29;5.60;99.90
19449;DHT22;9863;49.404;8.246;2023-01-10T09:12:58;5.70;99.90
19449;DHT22;9863;49.404;8.246;2023-01-10T09:15:32;5.70;99.90
19449;DHT22;9863;49.404;8.246;2023-01-10T09:18:04;5.70;99.90
19449;DHT22;9863;49.404;8.246;2023-01-10T09:20:34;5.80;99.90
19449;DHT22;9863;49.404;8.246;2023-01-10T09:23:13;5.80;99.90
19449;DHT22;9863;49.404;8.246;2023-01-10T09:25:47;5.80;99.90
19449;DHT22;9863;49.404;8.246;2023-01-10T09:28:18;5.80;99.90
19449;DHT22;9863;49.404;8.246;2023-01-10T09:30:46;5.80;99.90
19449;DHT22;9863;49.404;8.246;2023-01-10T09:33:13;5.70;99.90
19449;DHT22;9863;49.404;8.246;2023-01-10T09:35:41;5.70;99.90
19449;DHT22;9863;49.404;8.246;2023-01-10T09:38:14;5.70;99.90
19449;DHT22;9863;49.404;8.246;2023-01-10T09:40:56;5.80;99.90
19449;DHT22;9863;49.404;8.246;2023-01-10T09:50:09;6.00;99.90
19449;DHT22;9863;49.404;8.246;2023-01-10T09:52:49;6.10;99.90
19449;DHT22;9863;49.404;8.246;2023-01-10T09:55:22;6.10;99.90
19449;DHT22;9863;49.404;8.246;2023-01-10T09:57:52;6.10;99.90
19449;DHT22;9863;49.404;8.246;2023-01-10T10:00:35;6.20;99.90
19449;DHT22;9863;49.404;8.246;2023-01-10T10:03:35;6.20;99.90
19449;DHT22;9863;49.404;8.246;2023-01-10T10:06:23;6.30;99.90
19449;DHT22;9863;49.404;8.246;2023-01-10T10:08:51;6.40;99.90
19449;DHT22;9863;49.404;8.246;2023-01-10T10:19:27;6.50;99.90
19449;DHT22;9863;49.404;8.246;2023-01-10T10:25:43;6.50;99.90
19449;DHT22;9863;49.404;8.246;2023-01-10T10:31:14;6.50;99.90
19449;DHT22;9863;49.404;8.246;2023-01-10T10:37:11;6.50;99.90
19449;DHT22;9863;49.404;8.246;2023-01-10T10:42:19;6.40;99.90
19449;DHT22;9863;49.404;8.246;2023-01-10T10:44:55;6.50;99.90
19449;DHT22;9863;49.404;8.246;2023-01-10T10:47:32;6.60;99.90
19449;DHT22;9863;49.404;8.246;2023-01-10T10:52:41;6.70;99.90
19449;DHT22;9863;49.404;8.246;2023-01-10T10:55:17;6.70;99.90
19449;DHT22;9863;49.404;8.246;2023-01-10T10:57:54;6.70;99.90
19449;DHT22;9863;49.404;8.246;2023-01-10T11:00:27;6.70;99.90
19449;DHT22;9863;49.404;8.246;2023-01-10T11:03:09;6.20;99.90
19449;DHT22;9863;49.404;8.246;2023-01-10T11:05:50;6.80;99.90
19449;DHT22;9863;49.404;8.246;2023-01-10T11:08:19;6.90;99.90
19449;DHT22;9863;49.404;8.246;2023-01-10T11:10:58;6.90;99.90
19449;DHT22;9863;49.404;8.246;2023-01-10T11:16:04;6.90;99.90
19449;DHT22;9863;49.404;8.246;2023-01-10T11:18:32;6.80;99.90
19449;DHT22;9863;49.404;8.246;2023-01-10T11:21:07;6.80;99.90
19449;DHT22;9863;49.404;8.246;2023-01-10T11:23:51;6.80;99.90
19449;DHT22;9863;49.404;8.246;2023-01-10T11:26:39;6.80;99.90
19449;DHT22;9863;49.404;8.246;2023-01-10T11:29:24;6.90;99.90
19449;DHT22;9863;49.404;8.246;2023-01-10T11:31:55;7.20;99.90
19449;DHT22;9863;49.404;8.246;2023-01-10T11:34:29;7.50;99.90
19449;DHT22;9863;49.404;8.246;2023-01-10T11:37:00;7.50;99.90
19449;DHT22;9863;49.404;8.246;2023-01-10T11:39:31;7.30;99.90
19449;DHT22;9863;49.404;8.246;2023-01-10T11:42:25;7.30;99.90
19449;DHT22;9863;49.404;8.246;2023-01-10T11:48:18;7.20;99.90
19449;DHT22;9863;49.404;8.246;2023-01-10T11:51:16;7.10;99.90
19449;DHT22;9863;49.404;8.246;2023-01-10T11:53:45;7.10;99.90
19449;DHT22;9863;49.404;8.246;2023-01-10T11:56:22;7.10;99.90
19449;DHT22;9863;49.404;8.246;2023-01-10T11:58:55;7.00;99.90
19449;DHT22;9863;49.404;8.246;2023-01-10T12:01:41;7.00;99.90
19449;DHT22;9863;49.404;8.246;2023-01-10T12:04:14;7.00;99.90
19449;DHT22;9863;49.404;8.246;2023-01-10T12:06:50;7.00;99.90
19449;DHT22;9863;49.404;8.246;2023-01-10T12:12:22;7.00;99.90
19449;DHT22;9863;49.404;8.246;2023-01-10T12:14:58;7.00;99.90
19449;DHT22;9863;49.404;8.246;2023-01-10T12:17:30;7.00;99.90
19449;DHT22;9863;49.404;8.246;2023-01-10T12:20:02;7.10;99.90
19449;DHT22;9863;49.404;8.246;2023-01-10T12:22:38;7.10;99.90
19449;DHT22;9863;49.404;8.246;2023-01-10T12:25:33;7.00;99.90
19449;DHT22;9863;49.404;8.246;2023-01-10T12:28:22;7.10;99.90
19449;DHT22;9863;49.404;8.246;2023-01-10T12:30:52;7.10;99.90
19449;DHT22;9863;49.404;8.246;2023-01-10T12:33:27;7.30;99.90
19449;DHT22;9863;49.404;8.246;2023-01-10T12:36:03;7.20;99.90
19449;DHT22;9863;49.404;8.246;2023-01-10T12:38:42;7.10;99.90
19449;DHT22;9863;49.404;8.246;2023-01-10T12:44:41;7.10;99.90
19449;DHT22;9863;49.404;8.246;2023-01-10T12:47:51;7.10;99.90
19449;DHT22;9863;49.404;8.246;2023-01-10T12:50:32;7.00;99.90
19449;DHT22;9863;49.404;8.246;2023-01-10T12:53:29;7.00;99.90
19449;DHT22;9863;49.404;8.246;2023-01-10T12:56:01;6.90;99.90
19449;DHT22;9863;49.404;8.246;2023-01-10T12:58:44;6.90;99.90
19449;DHT22;9863;49.404;8.246;2023-01-10T13:01:16;6.90;99.90
19449;DHT22;9863;49.404;8.246;2023-01-10T13:03:51;7.00;99.90
19449;DHT22;9863;49.404;8.246;2023-01-10T13:06:30;6.90;99.90
19449;DHT22;9863;49.404;8.246;2023-01-10T13:09:03;7.00;99.90
19449;DHT22;9863;49.404;8.246;2023-01-10T13:11:41;7.00;99.90
19449;DHT22;9863;49.404;8.246;2023-01-10T13:14:16;7.00;99.90
19449;DHT22;9863;49.404;8.246;2023-01-10T13:16:49;7.00;99.90
19449;DHT22;9863;49.404;8.246;2023-01-10T13:19:22;7.10;99.90
19449;DHT22;9863;49.404;8.246;2023-01-10T13:22:21;7.10;99.90
19449;DHT22;9863;49.404;8.246;2023-01-10T13:24:56;7.10;99.90
19449;DHT22;9863;49.404;8.246;2023-01-10T13:27:30;7.00;99.90
19449;DHT22;9863;49.404;8.246;2023-01-10T13:29:59;7.00;99.90
19449;DHT22;9863;49.404;8.246;2023-01-10T13:32:34;7.00;99.90
19449;DHT22;9863;49.404;8.246;2023-01-10T13:37:42;7.00;99.90
19449;DHT22;9863;49.404;8.246;2023-01-10T13:40:20;7.00;99.90
19449;DHT22;9863;49.404;8.246;2023-01-10T13:56:26;7.00;99.90
19449;DHT22;9863;49.404;8.246;2023-01-10T14:01:37;7.00;99.90
19449;DHT22;9863;49.404;8.246;2023-01-10T14:04:29;7.00;99.90
19449;DHT22;9863;49.404;8.246;2023-01-10T14:07:17;7.00;99.90
19449;DHT22;9863;49.404;8.246;2023-01-10T14:09:49;7.00;99.90
19449;DHT22;9863;49.404;8.246;2023-01-10T14:15:19;7.00;99.90
19449;DHT22;9863;49.404;8.246;2023-01-10T14:18:23;6.90;99.90
19449;DHT22;9863;49.404;8.246;2023-01-10T14:21:05;6.90;99.90
19449;DHT22;9863;49.404;8.246;2023-01-10T14:23:40;6.90;99.90
19449;DHT22;9863;49.404;8.246;2023-01-10T14:29:08;6.90;99.90
19449;DHT22;9863;49.404;8.246;2023-01-10T14:31:48;6.90;99.90
19449;DHT22;9863;49.404;8.246;2023-01-10T14:34:24;6.90;99.90
19449;DHT22;9863;49.404;8.246;2023-01-10T14:37:00;6.90;99.90
19449;DHT22;9863;49.404;8.246;2023-01-10T14:39:32;6.80;99.90
19449;DHT22;9863;49.404;8.246;2023-01-10T14:42:02;6.80;99.90
19449;DHT22;9863;49.404;8.246;2023-01-10T14:44:58;6.80;99.90
19449;DHT22;9863;49.404;8.246;2023-01-10T14:47:34;6.80;99.90
19449;DHT22;9863;49.404;8.246;2023-01-10T14:50:04;6.80;99.90
19449;DHT22;9863;49.404;8.246;2023-01-10T14:52:32;6.80;99.90
19449;DHT22;9863;49.404;8.246;2023-01-10T14:55:12;6.80;99.90
19449;DHT22;9863;49.404;8.246;2023-01-10T14:57:58;6.80;99.90
19449;DHT22;9863;49.404;8.246;2023-01-10T15:00:29;6.80;99.90
19449;DHT22;9863;49.404;8.246;2023-01-10T15:03:01;6.80;99.90
19449;DHT22;9863;49.404;8.246;2023-01-10T15:05:33;6.70;99.90
19449;DHT22;9863;49.404;8.246;2023-01-10T15:10:50;6.60;99.90
19449;DHT22;9863;49.404;8.246;2023-01-10T15:13:23;6.60;99.90
19449;DHT22;9863;49.404;8.246;2023-01-10T15:15:54;6.60;99.90
19449;DHT22;9863;49.404;8.246;2023-01-10T15:18:43;6.60;99.90
19449;DHT22;9863;49.404;8.246;2023-01-10T15:21:12;6.50;99.90
19449;DHT22;9863;49.404;8.246;2023-01-10T15:23:42;6.50;99.90
19449;DHT22;9863;49.404;8.246;2023-01-10T15:26:19;6.50;99.90
19449;DHT22;9863;49.404;8.246;2023-01-10T15:29:12;6.40;99.90
19449;DHT22;9863;49.404;8.246;2023-01-10T15:31:44;6.30;99.90
19449;DHT22;9863;49.404;8.246;2023-01-10T15:34:17;6.40;99.90
19449;DHT22;9863;49.404;8.246;2023-01-10T15:36:52;6.30;99.90
19449;DHT22;9863;49.404;8.246;2023-01-10T15:39:23;6.30;99.90
19449;DHT22;9863;49.404;8.246;2023-01-10T15:42:00;6.20;99.90
19449;DHT22;9863;49.404;8.246;2023-01-10T15:44:38;6.20;99.90
19449;DHT22;9863;49.404;8.246;2023-01-10T15:47:34;6.20;99.90
19449;DHT22;9863;49.404;8.246;2023-01-10T15:52:51;6.20;99.90
19449;DHT22;9863;49.404;8.246;2023-01-10T15:58:29;6.20;99.90
19449;DHT22;9863;49.404;8.246;2023-01-10T16:01:02;6.20;99.90
19449;DHT22;9863;49.404;8.246;2023-01-10T16:03:36;6.10;99.90
19449;DHT22;9863;49.404;8.246;2023-01-10T16:06:05;6.10;99.90
19449;DHT22;9863;49.404;8.246;2023-01-10T16:08:38;6.10;99.90
19449;DHT22;9863;49.404;8.246;2023-01-10T16:11:15;6.10;99.90
19449;DHT22;9863;49.404;8.246;2023-01-10T16:14:04;6.10;99.90
19449;DHT22;9863;49.404;8.246;2023-01-10T16:16:31;6.10;99.90
19449;DHT22;9863;49.404;8.246;2023-01-10T16:18:58;6.00;99.90
19449;DHT22;9863;49.404;8.246;2023-01-10T16:21:41;6.10;99.90
19449;DHT22;9863;49.404;8.246;2023-01-10T16:24:34;6.10;99.90
19449;DHT22;9863;49.404;8.246;2023-01-10T16:27:03;6.10;99.90
19449;DHT22;9863;49.404;8.246;2023-01-10T16:29:32;6.00;99.90
19449;DHT22;9863;49.404;8.246;2023-01-10T16:31:59;6.00;99.90
19449;DHT22;9863;49.404;8.246;2023-01-10T16:34:26;6.00;99.90
19449;DHT22;9863;49.404;8.246;2023-01-10T16:36:53;6.00;99.90
19449;DHT22;9863;49.404;8.246;2023-01-10T16:39:22;6.00;99.90
19449;DHT22;9863;49.404;8.246;2023-01-10T16:41:49;6.00;99.90
19449;DHT22;9863;49.404;8.246;2023-01-10T16:44:34;6.00;99.90
19449;DHT22;9863;49.404;8.246;2023-01-10T16:47:02;5.90;99.90
19449;DHT22;9863;49.404;8.246;2023-01-10T16:49:32;6.00;99.90
19449;DHT22;9863;49.404;8.246;2023-01-10T16:52:04;6.00;99.90
19449;DHT22;9863;49.404;8.246;2023-01-10T16:54:32;5.90;99.90
19449;DHT22;9863;49.404;8.246;2023-01-10T16:57:02;6.00;99.90
19449;DHT22;9863;49.404;8.246;2023-01-10T16:59:29;5.90;99.90
19449;DHT22;9863;49.404;8.246;2023-01-10T17:01:57;5.90;99.90
19449;DHT22;9863;49.404;8.246;2023-01-10T17:04:27;6.00;99.90
19449;DHT22;9863;49.404;8.246;2023-01-10T17:06:57;6.00;99.90
19449;DHT22;9863;49.404;8.246;2023-01-10T17:09:29;6.00;99.90
19449;DHT22;9863;49.404;8.246;2023-01-10T17:12:06;6.00;99.90
19449;DHT22;9863;49.404;8.246;2023-01-10T17:14:38;6.00;99.90
19449;DHT22;9863;49.404;8.246;2023-01-10T17:17:05;6.00;99.90
19449;DHT22;9863;49.404;8.246;2023-01-10T17:19:32;6.00;99.90
19449;DHT22;9863;49.404;8.246;2023-01-10T17:22:00;5.90;99.90
19449;DHT22;9863;49.404;8.246;2023-01-10T17:24:27;5.20;99.90
19449;DHT22;9863;49.404;8.246;2023-01-10T17:26:55;5.90;99.90
19449;DHT22;9863;49.404;8.246;2023-01-10T17:29:22;6.00;99.90
19449;DHT22;9863;49.404;8.246;2023-01-10T17:31:49;6.00;99.90
19449;DHT22;9863;49.404;8.246;2023-01-10T17:34:17;6.00;99.90
19449;DHT22;9863;49.404;8.246;2023-01-10T17:36:44;6.10;99.90
19449;DHT22;9863;49.404;8.246;2023-01-10T17:39:11;6.00;99.90
19449;DHT22;9863;49.404;8.246;2023-01-10T17:41:38;6.10;99.90
19449;DHT22;9863;49.404;8.246;2023-01-10T17:44:05;6.10;99.90
19449;DHT22;9863;49.404;8.246;2023-01-10T17:46:33;6.00;99.90
19449;DHT22;9863;49.404;8.246;2023-01-10T17:49:01;6.00;99.90
19449;DHT22;9863;49.404;8.246;2023-01-10T17:51:28;6.00;99.90
19449;DHT22;9863;49.404;8.246;2023-01-10T17:53:55;6.00;99.90
19449;DHT22;9863;49.404;8.246;2023-01-10T17:56:23;6.00;99.90
19449;DHT22;9863;49.404;8.246;2023-01-10T17:58:50;6.00;99.90
19449;DHT22;9863;49.404;8.246;2023-01-10T18:01:21;6.00;99.90
19449;DHT22;9863;49.404;8.246;2023-01-10T18:03:51;6.00;99.90
19449;DHT22;9863;49.404;8.246;2023-01-10T18:06:19;6.00;99.90
19449;DHT22;9863;49.404;8.246;2023-01-10T18:08:51;6.00;99.90
19449;DHT22;9863;49.404;8.246;2023-01-10T18:11:20;6.00;99.90
19449;DHT22;9863;49.404;8.246;2023-01-10T18:13:49;6.00;99.90
19449;DHT22;9863;49.404;8.246;2023-01-10T18:16:16;6.00;99.90
19449;DHT22;9863;49.404;8.246;2023-01-10T18:18:43;6.00;99.90
19449;DHT22;9863;49.404;8.246;2023-01-10T18:21:15;6.10;99.90
19449;DHT22;9863;49.404;8.246;2023-01-10T18:23:46;6.00;99.90
19449;DHT22;9863;49.404;8.246;2023-01-10T18:26:15;6.00;99.90
19449;DHT22;9863;49.404;8.246;2023-01-10T18:28:45;6.00;99.90
19449;DHT22;9863;49.404;8.246;2023-01-10T18:31:14;6.00;99.90